createdAt,value
2023-12-08T00:00:55.486Z,-1.13
2023-12-08T00:01:55.542Z,-1.06
2023-12-08T00:02:55.632Z,-0.96
2023-12-08T00:03:55.630Z,-0.93
2023-12-08T00:04:55.707Z,-0.81
2023-12-08T00:05:55.780Z,-0.84
2023-12-08T00:06:55.728Z,-0.73
2023-12-08T00:07:55.765Z,-0.71
2023-12-08T00:08:55.779Z,-0.68
2023-12-08T00:09:55.816Z,-0.58
2023-12-08T00:10:55.843Z,-0.52
2023-12-08T00:11:55.908Z,-0.41
2023-12-08T00:12:55.866Z,-0.25
2023-12-08T00:13:55.850Z,-0.18
2023-12-08T00:14:55.846Z,-0.28
2023-12-08T00:15:55.848Z,-0.30
2023-12-08T00:16:55.940Z,-0.33
2023-12-08T00:17:55.938Z,-0.46
2023-12-08T00:18:56.009Z,-0.60
2023-12-08T00:19:56.044Z,-0.71
2023-12-08T00:20:56.131Z,-0.95
2023-12-08T00:21:56.159Z,-1.06
2023-12-08T00:22:56.244Z,-1.17
2023-12-08T00:23:56.424Z,-1.23
2023-12-08T00:24:56.485Z,-1.37
2023-12-08T00:25:56.600Z,-1.49
2023-12-08T00:26:56.703Z,-1.62
2023-12-08T00:27:56.838Z,-1.63
2023-12-08T00:28:57.101Z,-1.72
2023-12-08T00:29:57.435Z,-1.86
2023-12-08T00:30:57.647Z,-1.83
2023-12-08T00:31:57.874Z,-1.79
2023-12-08T00:32:58.293Z,-1.66
2023-12-08T00:33:58.452Z,-1.50
2023-12-08T00:34:58.614Z,-1.28
2023-12-08T00:35:58.924Z,-1.10
2023-12-08T00:36:59.261Z,-1.00
2023-12-08T00:37:59.439Z,-1.01
2023-12-08T00:38:59.855Z,-1.10
2023-12-08T00:39:59.970Z,-1.12
2023-12-08T00:41:00.264Z,-1.21
2023-12-08T00:42:00.541Z,-1.35
2023-12-08T00:43:00.721Z,-1.31
2023-12-08T00:44:00.946Z,-1.32
2023-12-08T00:45:01.202Z,-1.25
2023-12-08T00:46:01.539Z,-1.30
2023-12-08T00:47:01.773Z,-1.37
2023-12-08T00:48:02.237Z,-1.45
2023-12-08T00:49:02.397Z,-1.52
2023-12-08T00:50:02.563Z,-1.50
2023-12-08T00:51:02.839Z,-1.49
2023-12-08T00:52:02.987Z,-1.49
2023-12-08T00:53:03.404Z,-1.41
2023-12-08T00:54:03.654Z,-1.35
2023-12-08T00:55:03.861Z,-1.28
2023-12-08T00:56:04.044Z,-1.17
2023-12-08T00:57:04.391Z,-1.06
2023-12-08T00:58:04.664Z,-1.00
2023-12-08T00:59:04.818Z,-0.95
2023-12-08T01:00:05.230Z,-1.00
2023-12-08T01:01:05.493Z,-0.87
2023-12-08T01:02:05.610Z,-0.80
2023-12-08T01:03:05.980Z,-0.79
2023-12-08T01:04:06.209Z,-0.92
2023-12-08T01:05:06.319Z,-1.05
2023-12-08T01:06:06.704Z,-0.99
2023-12-08T01:07:06.899Z,-0.98
2023-12-08T01:08:07.096Z,-0.89
2023-12-08T01:09:07.435Z,-0.89
2023-12-08T01:10:07.609Z,-0.91
2023-12-08T01:11:07.930Z,-0.98
2023-12-08T01:12:08.280Z,-0.91
2023-12-08T01:13:08.417Z,-1.00
2023-12-08T01:14:08.629Z,-1.02
2023-12-08T01:15:09.081Z,-0.89
2023-12-08T01:16:09.217Z,-0.84
2023-12-08T01:17:09.517Z,-0.77
2023-12-08T01:18:09.794Z,-0.75
2023-12-08T01:19:10.035Z,-0.60
2023-12-08T01:20:10.259Z,-0.49
2023-12-08T01:21:10.549Z,-0.40
2023-12-08T01:22:10.782Z,-0.39
2023-12-08T01:23:11.025Z,-0.34
2023-12-08T01:24:11.421Z,-0.33
2023-12-08T01:25:11.542Z,-0.30
2023-12-08T01:26:11.776Z,-0.26
2023-12-08T01:27:12.191Z,-0.24
2023-12-08T01:28:12.509Z,-0.21
2023-12-08T01:29:12.523Z,-0.14
2023-12-08T01:30:12.830Z,-0.13
2023-12-08T01:31:13.006Z,-0.25
2023-12-08T01:32:13.315Z,-0.38
2023-12-08T01:33:13.692Z,-0.61
2023-12-08T01:34:14.066Z,-0.77
2023-12-08T01:35:14.066Z,-0.79
2023-12-08T01:36:39.121Z,-0.85
2023-12-08T01:37:15.302Z,-0.92
2023-12-08T01:38:14.360Z,-0.93
2023-12-08T01:39:14.414Z,-0.92
2023-12-08T01:40:15.280Z,-1.00
2023-12-08T01:41:14.413Z,-1.10
2023-12-08T01:42:14.463Z,-1.19
2023-12-08T01:43:14.510Z,-1.20
2023-12-08T01:44:14.529Z,-1.31
2023-12-08T01:45:14.632Z,-1.31
2023-12-08T01:46:14.613Z,-1.26
2023-12-08T01:47:14.627Z,-1.27
2023-12-08T01:48:14.766Z,-1.26
2023-12-08T01:49:14.830Z,-1.31
2023-12-08T01:50:14.797Z,-1.31
2023-12-08T01:51:14.887Z,-1.29
2023-12-08T01:52:14.898Z,-1.21
2023-12-08T01:53:14.990Z,-1.15
2023-12-08T01:54:15.100Z,-1.14
2023-12-08T01:55:15.171Z,-1.19
2023-12-08T01:56:15.217Z,-1.19
2023-12-08T01:57:15.344Z,-1.14
2023-12-08T01:58:15.420Z,-1.19
2023-12-08T01:59:15.517Z,-1.33
2023-12-08T02:00:15.600Z,-1.32
2023-12-08T02:01:15.686Z,-1.32
2023-12-08T02:02:15.626Z,-1.34
2023-12-08T02:03:15.762Z,-1.33
2023-12-08T02:04:15.867Z,-1.30
2023-12-08T02:05:15.808Z,-1.29
2023-12-08T02:06:15.925Z,-1.25
2023-12-08T02:07:15.941Z,-1.23
2023-12-08T02:08:15.982Z,-1.22
2023-12-08T02:09:16.102Z,-1.13
2023-12-08T02:10:16.137Z,-1.05
2023-12-08T02:11:18.085Z,-0.95
2023-12-08T02:12:16.172Z,-0.88
2023-12-08T02:13:16.206Z,-0.84
2023-12-08T02:14:16.279Z,-0.85
2023-12-08T02:15:16.470Z,-0.78
2023-12-08T02:16:16.412Z,-0.77
2023-12-08T02:17:16.472Z,-0.73
2023-12-08T02:18:16.640Z,-0.67
2023-12-08T02:19:16.728Z,-0.64
2023-12-08T02:20:16.685Z,-0.64
2023-12-08T02:21:16.844Z,-0.66
2023-12-08T02:22:16.830Z,-0.70
2023-12-08T02:23:16.847Z,-0.79
2023-12-08T02:24:16.869Z,-0.78
2023-12-08T02:25:16.867Z,-0.74
2023-12-08T02:26:16.924Z,-0.67
2023-12-08T02:27:17.034Z,-0.65
2023-12-08T02:28:17.078Z,-0.60
2023-12-08T02:29:17.115Z,-0.53
2023-12-08T02:30:17.270Z,-0.45
2023-12-08T02:31:17.250Z,-0.40
2023-12-08T02:32:17.350Z,-0.36
2023-12-08T02:33:17.491Z,-0.45
2023-12-08T02:34:17.470Z,-0.41
2023-12-08T02:35:17.360Z,-0.27
2023-12-08T02:36:17.532Z,-0.21
2023-12-08T02:37:17.397Z,-0.23
2023-12-08T02:38:17.386Z,-0.21
2023-12-08T02:39:17.444Z,-0.19
2023-12-08T02:40:17.409Z,-0.14
2023-12-08T02:41:17.398Z,-0.10
2023-12-08T02:42:17.469Z,-0.01
2023-12-08T02:43:17.419Z,0.01
2023-12-08T02:44:17.433Z,0.05
2023-12-08T02:45:17.492Z,0.04
2023-12-08T02:46:17.478Z,-0.01
2023-12-08T02:47:17.477Z,0.00
2023-12-08T02:48:17.593Z,0.09
2023-12-08T02:49:17.569Z,0.21
2023-12-08T02:50:17.480Z,0.35
2023-12-08T02:51:17.542Z,0.45
2023-12-08T02:52:17.541Z,0.50
2023-12-08T02:53:17.566Z,0.55
2023-12-08T02:54:17.685Z,0.57
2023-12-08T02:55:17.590Z,0.57
2023-12-08T02:56:17.600Z,0.49
2023-12-08T02:57:17.681Z,0.46
2023-12-08T02:58:17.659Z,0.46
2023-12-08T02:59:17.677Z,0.47
2023-12-08T03:00:17.722Z,0.32
2023-12-08T03:01:17.707Z,0.21
2023-12-08T03:02:17.688Z,0.05
2023-12-08T03:03:17.750Z,-0.06
2023-12-08T03:04:17.796Z,-0.08
2023-12-08T03:05:17.871Z,-0.10
2023-12-08T03:06:17.921Z,-0.16
2023-12-08T03:07:17.952Z,-0.15
2023-12-08T03:08:17.965Z,-0.24
2023-12-08T03:09:18.038Z,-0.18
2023-12-08T03:10:18.030Z,-0.13
2023-12-08T03:11:18.086Z,-0.13
2023-12-08T03:12:18.105Z,-0.17
2023-12-08T03:13:18.115Z,-0.30
2023-12-08T03:14:18.173Z,-0.24
2023-12-08T03:15:18.268Z,-0.18
2023-12-08T03:16:18.278Z,-0.21
2023-12-08T03:17:18.361Z,-0.17
2023-12-08T03:18:18.389Z,-0.15
2023-12-08T03:19:18.391Z,-0.09
2023-12-08T03:20:18.378Z,0.02
2023-12-08T03:21:18.586Z,0.01
2023-12-08T03:22:18.764Z,-0.01
2023-12-08T03:23:18.953Z,-0.02
2023-12-08T03:24:19.275Z,-0.00
2023-12-08T03:25:19.447Z,0.07
2023-12-08T03:26:19.647Z,0.13
2023-12-08T03:27:19.914Z,0.14
2023-12-08T03:28:20.177Z,0.11
2023-12-08T03:29:20.337Z,0.18
2023-12-08T03:30:20.634Z,0.24
2023-12-08T03:31:20.794Z,0.28
2023-12-08T03:32:21.027Z,0.34
2023-12-08T03:33:21.385Z,0.39
2023-12-08T03:34:21.629Z,0.47
2023-12-08T03:35:21.787Z,0.58
2023-12-08T03:36:21.881Z,0.54
2023-12-08T03:37:22.054Z,0.54
2023-12-08T03:38:22.349Z,0.59
2023-12-08T03:39:22.536Z,0.60
2023-12-08T03:40:22.712Z,0.65
2023-12-08T03:41:22.881Z,0.76
2023-12-08T03:42:23.169Z,0.84
2023-12-08T03:43:23.368Z,0.97
2023-12-08T03:44:23.636Z,0.97
2023-12-08T03:45:23.749Z,1.00
2023-12-08T03:46:24.000Z,1.01
2023-12-08T03:47:24.437Z,0.97
2023-12-08T03:48:24.296Z,1.02
2023-12-08T03:49:24.379Z,1.15
2023-12-08T03:50:24.206Z,1.24
2023-12-08T03:51:24.197Z,1.22
2023-12-08T03:52:24.215Z,1.29
2023-12-08T03:53:24.187Z,1.25
2023-12-08T03:54:24.187Z,1.19
2023-12-08T03:55:24.158Z,1.22
2023-12-08T03:56:24.199Z,1.31
2023-12-08T03:57:24.799Z,1.31
2023-12-08T03:58:24.446Z,1.31
2023-12-08T03:59:24.470Z,1.37
2023-12-08T04:00:24.423Z,1.46
2023-12-08T04:01:24.426Z,1.54
2023-12-08T04:02:24.658Z,1.63
2023-12-08T04:03:24.913Z,1.56
2023-12-08T04:04:27.156Z,1.59
2023-12-08T04:05:25.090Z,1.64
2023-12-08T04:06:25.004Z,1.59
2023-12-08T04:07:25.098Z,1.61
2023-12-08T04:08:24.874Z,1.63
2023-12-08T04:09:26.775Z,1.67
2023-12-08T04:10:24.769Z,1.74
2023-12-08T04:11:24.717Z,1.77
2023-12-08T04:12:24.659Z,1.71
2023-12-08T04:13:24.629Z,1.66
2023-12-08T04:14:24.539Z,1.73
2023-12-08T04:15:24.478Z,1.73
2023-12-08T04:16:24.419Z,1.73
2023-12-08T04:17:24.762Z,1.69
2023-12-08T04:18:24.407Z,1.47
2023-12-08T04:19:24.358Z,1.33
2023-12-08T04:20:24.166Z,1.23
2023-12-08T04:21:24.081Z,1.28
2023-12-08T04:22:24.011Z,1.36
2023-12-08T04:23:23.944Z,1.51
2023-12-08T04:24:23.894Z,1.59
2023-12-08T04:25:23.813Z,1.55
2023-12-08T04:26:23.745Z,1.50
2023-12-08T04:27:23.925Z,1.57
2023-12-08T04:28:23.628Z,1.57
2023-12-08T04:29:23.575Z,1.49
2023-12-08T04:30:23.590Z,1.49
2023-12-08T04:31:23.462Z,1.45
2023-12-08T04:32:23.432Z,1.22
2023-12-08T04:33:23.824Z,1.12
2023-12-08T04:34:23.983Z,1.08
2023-12-08T04:35:24.070Z,1.00
2023-12-08T04:36:24.298Z,1.00
2023-12-08T04:37:24.880Z,1.02
2023-12-08T04:38:24.738Z,0.97
2023-12-08T04:39:24.969Z,0.91
2023-12-08T04:40:25.234Z,0.95
2023-12-08T04:41:25.460Z,0.92
2023-12-08T04:42:25.629Z,0.95
2023-12-08T04:43:25.873Z,0.98
2023-12-08T04:44:26.152Z,1.07
2023-12-08T04:45:26.478Z,1.11
2023-12-08T04:46:26.583Z,1.13
2023-12-08T04:47:27.070Z,1.13
2023-12-08T04:48:27.112Z,1.12
2023-12-08T04:49:35.531Z,1.12
2023-12-08T04:50:34.691Z,1.14
2023-12-08T04:51:34.630Z,1.14
2023-12-08T04:52:34.622Z,1.08
2023-12-08T04:53:34.690Z,0.91
2023-12-08T04:54:34.625Z,0.91
2023-12-08T04:55:34.615Z,0.86
2023-12-08T04:56:34.640Z,0.89
2023-12-08T04:57:34.711Z,0.96
2023-12-08T04:58:34.601Z,0.94
2023-12-08T04:59:34.657Z,0.96
2023-12-08T05:00:34.590Z,0.94
2023-12-08T05:01:34.765Z,0.95
2023-12-08T05:02:34.988Z,1.03
2023-12-08T05:03:35.158Z,1.16
2023-12-08T05:04:35.434Z,1.26
2023-12-08T05:05:35.721Z,1.30
2023-12-08T05:06:36.048Z,1.32
2023-12-08T05:07:36.069Z,1.24
2023-12-08T05:08:36.318Z,1.29
2023-12-08T05:09:36.553Z,1.41
2023-12-08T05:10:36.763Z,1.45
2023-12-08T05:11:37.036Z,1.47
2023-12-08T05:12:37.185Z,1.58
2023-12-08T05:13:37.434Z,1.63
2023-12-08T05:14:37.735Z,1.68
2023-12-08T05:15:37.812Z,1.70
2023-12-08T05:16:38.121Z,1.64
2023-12-08T05:17:38.402Z,1.47
2023-12-08T05:18:38.545Z,1.44
2023-12-08T05:19:38.816Z,1.33
2023-12-08T05:20:39.019Z,1.23
2023-12-08T05:21:39.235Z,1.05
2023-12-08T05:22:39.429Z,1.11
2023-12-08T05:23:39.688Z,1.07
2023-12-08T05:24:39.871Z,1.12
2023-12-08T05:25:40.133Z,1.24
2023-12-08T05:26:40.363Z,1.39
2023-12-08T05:27:40.588Z,1.40
2023-12-08T05:28:40.842Z,1.34
2023-12-08T05:29:41.041Z,1.39
2023-12-08T05:30:41.276Z,1.48
2023-12-08T05:31:41.453Z,1.55
2023-12-08T05:32:41.805Z,1.61
2023-12-08T05:33:42.030Z,1.57
2023-12-08T05:34:42.166Z,1.46
2023-12-08T05:35:42.334Z,1.35
2023-12-08T05:36:42.529Z,1.41
2023-12-08T05:37:42.821Z,1.32
2023-12-08T05:38:43.120Z,1.40
2023-12-08T05:39:43.193Z,1.52
2023-12-08T05:40:43.503Z,1.49
2023-12-08T05:41:43.709Z,1.47
2023-12-08T05:42:43.901Z,1.61
2023-12-08T05:43:44.108Z,1.63
2023-12-08T05:44:44.335Z,1.55
2023-12-08T05:45:44.612Z,1.55
2023-12-08T05:46:44.793Z,1.56
2023-12-08T05:47:45.151Z,1.53
2023-12-08T05:48:45.363Z,1.50
2023-12-08T05:49:45.600Z,1.45
2023-12-08T05:50:46.994Z,1.46
2023-12-08T05:51:45.611Z,1.51
2023-12-08T05:52:45.595Z,1.59
2023-12-08T05:53:45.532Z,1.68
2023-12-08T05:54:45.535Z,1.57
2023-12-08T05:55:45.596Z,1.57
2023-12-08T05:56:45.671Z,1.71
2023-12-08T05:57:45.711Z,1.61
2023-12-08T05:58:45.718Z,1.47
2023-12-08T05:59:45.641Z,1.38
2023-12-08T06:00:45.651Z,1.36
2023-12-08T06:01:45.720Z,1.31
2023-12-08T06:02:45.768Z,1.25
2023-12-08T06:03:45.721Z,1.34
2023-12-08T06:04:45.896Z,1.48
2023-12-08T06:05:46.187Z,1.55
2023-12-08T06:06:46.405Z,1.55
2023-12-08T06:07:46.588Z,1.61
2023-12-08T06:08:46.800Z,1.74
2023-12-08T06:09:47.020Z,1.88
2023-12-08T06:10:47.158Z,1.97
2023-12-08T06:11:47.656Z,2.03
2023-12-08T06:12:47.689Z,2.06
2023-12-08T06:13:47.807Z,2.14
2023-12-08T06:14:48.069Z,2.18
2023-12-08T06:15:48.204Z,2.13
2023-12-08T06:16:48.422Z,2.05
2023-12-08T06:17:48.771Z,1.92
2023-12-08T06:18:49.076Z,1.77
2023-12-08T06:19:49.074Z,1.82
2023-12-08T06:20:49.409Z,1.88
2023-12-08T06:21:49.466Z,1.88
2023-12-08T06:22:49.708Z,1.79
2023-12-08T06:23:50.060Z,1.83
2023-12-08T06:24:50.124Z,1.88
2023-12-08T06:25:50.339Z,1.85
2023-12-08T06:26:50.638Z,1.83
2023-12-08T06:27:50.832Z,1.83
2023-12-08T06:28:51.043Z,1.83
2023-12-08T06:29:51.351Z,1.73
2023-12-08T06:30:51.527Z,1.70
2023-12-08T06:31:51.808Z,1.76
2023-12-08T06:32:52.085Z,1.76
2023-12-08T06:34:05.038Z,1.71
2023-12-08T06:34:53.275Z,1.65
2023-12-08T06:35:52.238Z,1.59
2023-12-08T06:36:52.194Z,1.48
2023-12-08T06:37:52.185Z,1.42
2023-12-08T06:38:52.203Z,1.38
2023-12-08T06:39:52.166Z,1.43
2023-12-08T06:40:52.162Z,1.41
2023-12-08T06:41:52.128Z,1.44
2023-12-08T06:42:52.046Z,1.38
2023-12-08T06:43:51.993Z,1.40
2023-12-08T06:44:51.997Z,1.43
2023-12-08T06:45:51.916Z,1.46
2023-12-08T06:46:51.898Z,1.46
2023-12-08T06:47:51.964Z,1.48
2023-12-08T06:48:52.000Z,1.49
2023-12-08T06:49:52.075Z,1.52
2023-12-08T06:50:52.182Z,1.56
2023-12-08T06:51:52.431Z,1.60
2023-12-08T06:52:52.739Z,1.60
2023-12-08T06:53:54.144Z,1.62
2023-12-08T06:54:52.812Z,1.63
2023-12-08T06:55:52.833Z,1.59
2023-12-08T06:56:52.894Z,1.57
2023-12-08T06:57:52.849Z,1.56
2023-12-08T06:58:53.604Z,1.58
2023-12-08T06:59:53.071Z,1.66
2023-12-08T07:00:53.076Z,1.73
2023-12-08T07:01:53.081Z,1.73
2023-12-08T07:02:53.082Z,1.71
2023-12-08T07:03:53.272Z,1.65
2023-12-08T07:04:53.238Z,1.68
2023-12-08T07:05:53.330Z,1.68
2023-12-08T07:06:53.273Z,1.69
2023-12-08T07:07:53.289Z,1.76
2023-12-08T07:08:53.447Z,1.83
2023-12-08T07:09:53.581Z,1.82
2023-12-08T07:10:53.748Z,1.88
2023-12-08T07:11:54.462Z,1.90
2023-12-08T07:12:54.032Z,1.67
2023-12-08T07:13:54.065Z,1.48
2023-12-08T07:14:54.305Z,1.30
2023-12-08T07:15:54.189Z,1.21
2023-12-08T07:16:54.278Z,1.13
2023-12-08T07:17:54.395Z,1.10
2023-12-08T07:18:56.000Z,1.16
2023-12-08T07:19:54.520Z,1.09
2023-12-08T07:20:54.331Z,1.13
2023-12-08T07:21:54.270Z,1.23
2023-12-08T07:22:54.232Z,1.33
2023-12-08T07:23:54.238Z,1.45
2023-12-08T07:24:54.184Z,1.47
2023-12-08T07:25:54.149Z,1.50
2023-12-08T07:26:54.122Z,1.61
2023-12-08T07:27:54.067Z,1.65
2023-12-08T07:28:54.016Z,1.67
2023-12-08T07:29:54.011Z,1.66
2023-12-08T07:30:53.949Z,1.59
2023-12-08T07:31:53.906Z,1.56
2023-12-08T07:32:54.031Z,1.54
2023-12-08T07:33:53.976Z,1.56
2023-12-08T07:34:53.959Z,1.52
2023-12-08T07:35:54.088Z,1.57
2023-12-08T07:36:54.308Z,1.55
2023-12-08T07:37:54.574Z,1.54
2023-12-08T07:38:54.806Z,1.61
2023-12-08T07:39:55.030Z,1.68
2023-12-08T07:40:55.246Z,1.79
2023-12-08T07:41:55.490Z,1.81
2023-12-08T07:42:55.691Z,1.79
2023-12-08T07:43:56.127Z,1.85
2023-12-08T07:44:56.282Z,1.83
2023-12-08T07:45:56.389Z,1.94
2023-12-08T07:46:56.628Z,1.89
2023-12-08T07:47:56.991Z,1.88
2023-12-08T07:48:57.196Z,1.88
2023-12-08T07:49:57.413Z,1.79
2023-12-08T07:50:57.624Z,1.78
2023-12-08T07:51:57.910Z,1.75
2023-12-08T07:52:58.059Z,1.78
2023-12-08T07:54:00.077Z,1.76
2023-12-08T07:54:58.368Z,1.80
2023-12-08T07:55:58.273Z,1.87
2023-12-08T07:56:58.506Z,1.86
2023-12-08T07:57:58.183Z,1.86
2023-12-08T07:58:58.142Z,1.86
2023-12-08T07:59:58.115Z,1.93
2023-12-08T08:00:58.036Z,2.04
2023-12-08T08:01:57.969Z,2.08
2023-12-08T08:02:57.976Z,2.16
2023-12-08T08:03:58.643Z,2.20
2023-12-08T08:04:57.772Z,2.23
2023-12-08T08:05:57.839Z,2.23
2023-12-08T08:06:57.716Z,2.23
2023-12-08T08:07:57.591Z,2.28
2023-12-08T08:08:57.557Z,2.33
2023-12-08T08:09:57.462Z,2.34
2023-12-08T08:10:57.426Z,2.40
2023-12-08T08:11:57.453Z,2.42
2023-12-08T08:12:57.379Z,2.48
2023-12-08T08:13:57.348Z,2.55
2023-12-08T08:14:57.413Z,2.66
2023-12-08T08:15:57.288Z,2.68
2023-12-08T08:16:57.258Z,2.73
2023-12-08T08:17:57.315Z,2.74
2023-12-08T08:18:57.388Z,2.73
2023-12-08T08:19:57.184Z,2.73
2023-12-08T08:20:57.215Z,2.75
2023-12-08T08:22:28.008Z,2.81
2023-12-08T08:22:58.090Z,2.72
2023-12-08T08:23:57.059Z,2.79
2023-12-08T08:24:56.948Z,2.88
2023-12-08T08:25:58.454Z,2.80
2023-12-08T08:26:56.852Z,2.69
2023-12-08T08:27:57.770Z,2.65
2023-12-08T08:28:56.690Z,2.57
2023-12-08T08:29:56.688Z,2.54
2023-12-08T08:30:56.555Z,2.58
2023-12-08T08:31:56.509Z,2.62
2023-12-08T08:32:56.506Z,2.58
2023-12-08T08:33:56.516Z,2.67
2023-12-08T08:34:58.001Z,2.73
2023-12-08T08:35:56.353Z,2.63
2023-12-08T08:36:56.324Z,2.47
2023-12-08T08:37:56.320Z,2.45
2023-12-08T08:38:56.509Z,2.55
2023-12-08T08:39:56.736Z,2.55
2023-12-08T08:40:56.892Z,2.62
2023-12-08T08:41:57.098Z,2.71
2023-12-08T08:42:57.317Z,2.85
2023-12-08T08:43:57.454Z,2.91
2023-12-08T08:44:57.728Z,2.89
2023-12-08T08:45:57.856Z,2.99
2023-12-08T08:46:57.998Z,3.06
2023-12-08T08:47:58.384Z,3.04
2023-12-08T08:48:58.590Z,3.10
2023-12-08T08:49:58.768Z,3.17
2023-12-08T08:50:58.796Z,3.23
2023-12-08T08:51:59.043Z,3.27
2023-12-08T08:52:59.233Z,3.30
2023-12-08T08:53:59.455Z,3.27
2023-12-08T08:54:59.636Z,3.24
2023-12-08T08:55:59.775Z,3.24
2023-12-08T08:56:59.985Z,3.22
2023-12-08T08:58:00.225Z,3.14
2023-12-08T08:59:00.326Z,3.21
2023-12-08T09:00:01.342Z,3.27
2023-12-08T09:01:00.599Z,3.23
2023-12-08T09:02:00.558Z,2.99
2023-12-08T09:03:00.662Z,2.78
2023-12-08T09:04:00.652Z,2.73
2023-12-08T09:05:00.749Z,2.73
2023-12-08T09:06:00.816Z,2.71
2023-12-08T09:07:00.913Z,2.75
2023-12-08T09:08:01.046Z,2.85
2023-12-08T09:09:01.247Z,2.98
2023-12-08T09:10:01.391Z,3.05
2023-12-08T09:11:01.666Z,3.08
2023-12-08T09:12:01.867Z,3.19
2023-12-08T09:13:02.046Z,3.29
2023-12-08T09:14:02.238Z,3.38
2023-12-08T09:15:02.521Z,3.39
2023-12-08T09:16:02.631Z,3.47
2023-12-08T09:17:02.890Z,3.57
2023-12-08T09:18:03.193Z,3.56
2023-12-08T09:19:03.423Z,3.59
2023-12-08T09:20:03.454Z,3.56
2023-12-08T09:21:03.742Z,3.65
2023-12-08T09:22:03.871Z,3.66
2023-12-08T09:23:04.068Z,3.66
2023-12-08T09:24:04.363Z,3.66
2023-12-08T09:25:04.512Z,3.57
2023-12-08T09:26:04.800Z,3.62
2023-12-08T09:27:05.072Z,3.51
2023-12-08T09:28:05.159Z,3.56
2023-12-08T09:29:05.430Z,3.58
2023-12-08T09:30:05.683Z,3.64
2023-12-08T09:31:05.860Z,3.68
2023-12-08T09:32:06.062Z,3.72
2023-12-08T09:33:06.624Z,3.70
2023-12-08T09:34:06.351Z,3.66
2023-12-08T09:35:06.267Z,3.63
2023-12-08T09:36:06.317Z,3.63
2023-12-08T09:37:26.345Z,3.64
2023-12-08T09:38:08.480Z,3.66
2023-12-08T09:39:06.121Z,3.58
2023-12-08T09:40:05.974Z,3.68
2023-12-08T09:41:05.976Z,3.69
2023-12-08T09:42:05.833Z,3.77
2023-12-08T09:43:05.773Z,3.68
2023-12-08T09:44:05.715Z,3.59
2023-12-08T09:45:05.716Z,3.57
2023-12-08T09:46:05.608Z,3.57
2023-12-08T09:47:05.543Z,3.53
2023-12-08T09:48:05.574Z,3.65
2023-12-08T09:49:05.557Z,3.53
2023-12-08T09:50:05.343Z,3.39
2023-12-08T09:51:06.061Z,3.35
2023-12-08T09:52:05.225Z,3.39
2023-12-08T09:53:05.143Z,3.34
2023-12-08T09:54:05.143Z,3.13
2023-12-08T09:55:05.015Z,3.05
2023-12-08T09:56:04.973Z,3.12
2023-12-08T09:57:04.943Z,3.16
2023-12-08T09:58:04.869Z,3.20
2023-12-08T09:59:05.031Z,3.22
2023-12-08T10:00:05.000Z,3.13
2023-12-08T10:01:04.971Z,3.15
2023-12-08T10:02:04.905Z,3.19
2023-12-08T10:03:04.847Z,3.26
2023-12-08T10:04:04.788Z,3.25
2023-12-08T10:05:04.746Z,3.12
2023-12-08T10:06:04.763Z,3.01
2023-12-08T10:07:04.665Z,3.05
2023-12-08T10:08:04.638Z,2.81
2023-12-08T10:09:04.679Z,2.54
2023-12-08T10:10:04.709Z,2.41
2023-12-08T10:11:04.642Z,2.40
2023-12-08T10:12:04.660Z,2.33
2023-12-08T10:13:04.685Z,2.37
2023-12-08T10:14:04.651Z,2.30
2023-12-08T10:15:05.028Z,2.21
2023-12-08T10:16:05.121Z,2.14
2023-12-08T10:17:05.367Z,2.14
2023-12-08T10:18:05.722Z,2.16
2023-12-08T10:19:05.952Z,2.08
2023-12-08T10:20:06.153Z,2.13
2023-12-08T10:21:06.336Z,2.31
2023-12-08T10:22:06.584Z,2.43
2023-12-08T10:23:06.829Z,2.32
2023-12-08T10:24:07.086Z,2.38
2023-12-08T10:25:07.292Z,2.41
2023-12-08T10:26:07.484Z,2.12
2023-12-08T10:27:07.836Z,2.14
2023-12-08T10:28:08.048Z,2.13
2023-12-08T10:29:08.253Z,2.00
2023-12-08T10:30:08.578Z,1.94
2023-12-08T10:31:08.805Z,1.96
2023-12-08T10:32:09.036Z,2.13
2023-12-08T10:33:09.424Z,2.31
2023-12-08T10:34:09.606Z,2.41
2023-12-08T10:35:09.760Z,2.34
2023-12-08T10:36:10.028Z,2.41
2023-12-08T10:37:10.246Z,2.49
2023-12-08T10:38:11.226Z,2.66
2023-12-08T10:39:10.530Z,2.71
2023-12-08T10:40:10.497Z,2.75
2023-12-08T10:41:10.507Z,2.76
2023-12-08T10:42:10.583Z,2.69
2023-12-08T10:43:10.716Z,2.67
2023-12-08T10:44:10.969Z,2.72
2023-12-08T10:45:11.281Z,2.76
2023-12-08T10:46:11.499Z,2.74
2023-12-08T10:47:11.700Z,2.71
2023-12-08T10:48:11.971Z,2.69
2023-12-08T10:49:12.231Z,2.75
2023-12-08T10:50:12.390Z,2.76
2023-12-08T10:51:12.429Z,2.77
2023-12-08T10:52:12.385Z,2.83
2023-12-08T10:53:12.404Z,2.91
2023-12-08T10:54:12.381Z,3.00
2023-12-08T10:55:12.570Z,2.91
2023-12-08T10:56:12.790Z,2.84
2023-12-08T10:57:12.791Z,2.73
2023-12-08T10:58:12.756Z,2.83
2023-12-08T10:59:12.766Z,2.86
2023-12-08T11:00:12.817Z,2.76
2023-12-08T11:01:12.860Z,2.79
2023-12-08T11:02:13.100Z,2.82
2023-12-08T11:03:13.401Z,2.89
2023-12-08T11:04:13.664Z,2.95
2023-12-08T11:05:13.908Z,2.71
2023-12-08T11:06:14.071Z,2.60
2023-12-08T11:07:14.250Z,2.58
2023-12-08T11:08:14.923Z,2.68
2023-12-08T11:09:14.459Z,2.66
2023-12-08T11:10:14.412Z,2.72
2023-12-08T11:11:14.437Z,2.75
2023-12-08T11:12:14.566Z,2.65
2023-12-08T11:13:14.487Z,2.44
2023-12-08T11:14:14.783Z,2.42
2023-12-08T11:15:14.890Z,2.46
2023-12-08T11:16:15.117Z,2.59
2023-12-08T11:17:15.274Z,2.59
2023-12-08T11:18:15.753Z,2.65
2023-12-08T11:19:15.883Z,2.70
2023-12-08T11:20:15.952Z,2.80
2023-12-08T11:21:16.278Z,2.86
2023-12-08T11:22:16.410Z,2.82
2023-12-08T11:23:16.598Z,2.85
2023-12-08T11:24:17.042Z,2.84
2023-12-08T11:25:16.953Z,2.72
2023-12-08T11:26:16.847Z,2.69
2023-12-08T11:27:16.966Z,2.66
2023-12-08T11:28:16.775Z,2.72
2023-12-08T11:29:16.783Z,2.76
2023-12-08T11:30:16.740Z,2.87
2023-12-08T11:31:16.671Z,2.78
2023-12-08T11:32:16.686Z,2.73
2023-12-08T11:33:16.755Z,2.77
2023-12-08T11:34:16.664Z,2.91
2023-12-08T11:35:16.583Z,2.96
2023-12-08T11:36:16.600Z,2.78
2023-12-08T11:37:16.524Z,2.83
2023-12-08T11:38:16.473Z,2.85
2023-12-08T11:39:16.481Z,2.85
2023-12-08T11:40:16.478Z,2.89
2023-12-08T11:41:16.588Z,2.88
2023-12-08T11:42:16.454Z,2.85
2023-12-08T11:43:16.470Z,2.87
2023-12-08T11:44:16.469Z,3.01
2023-12-08T11:45:16.459Z,2.99
2023-12-08T11:46:16.488Z,3.04
2023-12-08T11:47:16.474Z,2.95
2023-12-08T11:48:16.580Z,2.94
2023-12-08T11:49:16.498Z,3.03
2023-12-08T11:50:16.370Z,3.09
2023-12-08T11:51:16.336Z,3.17
2023-12-08T11:52:16.294Z,3.26
2023-12-08T11:53:16.260Z,3.16
2023-12-08T11:54:16.265Z,3.21
2023-12-08T11:55:21.704Z,3.14
2023-12-08T11:56:17.321Z,3.02
2023-12-08T11:57:16.264Z,2.85
2023-12-08T11:58:16.189Z,2.86
2023-12-08T11:59:16.119Z,3.02
2023-12-08T12:00:16.099Z,3.17
2023-12-08T12:01:16.025Z,3.22
2023-12-08T12:02:15.943Z,3.18
2023-12-08T12:03:15.940Z,3.19
2023-12-08T12:04:15.875Z,3.28
2023-12-08T12:05:15.712Z,3.17
2023-12-08T12:06:16.836Z,2.96
2023-12-08T12:07:15.621Z,2.93
2023-12-08T12:08:15.593Z,2.98
2023-12-08T12:09:15.637Z,2.95
2023-12-08T12:10:15.548Z,2.99
2023-12-08T12:11:17.935Z,3.01
2023-12-08T12:12:15.613Z,3.12
2023-12-08T12:13:15.627Z,3.13
2023-12-08T12:14:15.650Z,3.13
2023-12-08T12:15:15.788Z,2.99
2023-12-08T12:16:16.014Z,2.68
2023-12-08T12:17:16.971Z,2.54
2023-12-08T12:18:16.430Z,2.57
2023-12-08T12:19:16.368Z,2.57
2023-12-08T12:20:16.260Z,2.63
2023-12-08T12:21:16.319Z,2.60
2023-12-08T12:22:16.276Z,2.69
2023-12-08T12:23:18.332Z,2.78
2023-12-08T12:24:16.220Z,2.75
2023-12-08T12:25:16.197Z,2.78
2023-12-08T12:26:16.101Z,2.87
2023-12-08T12:27:16.142Z,2.91
2023-12-08T12:28:16.033Z,3.02
2023-12-08T12:29:15.966Z,3.05
2023-12-08T12:30:15.959Z,3.06
2023-12-08T12:31:15.883Z,3.15
2023-12-08T12:32:15.889Z,3.26
2023-12-08T12:33:15.936Z,3.39
2023-12-08T12:34:15.894Z,3.44
2023-12-08T12:35:15.686Z,3.45
2023-12-08T12:36:15.734Z,3.32
2023-12-08T12:37:15.601Z,3.24
2023-12-08T12:38:15.561Z,3.06
2023-12-08T12:39:15.540Z,3.03
2023-12-08T12:40:15.509Z,3.01
2023-12-08T12:41:15.449Z,2.81
2023-12-08T12:42:15.476Z,2.74
2023-12-08T12:43:15.337Z,2.80
2023-12-08T12:44:15.294Z,2.73
2023-12-08T12:45:15.235Z,2.76
2023-12-08T12:46:15.174Z,2.80
2023-12-08T12:47:15.120Z,2.83
2023-12-08T12:48:15.276Z,2.86
2023-12-08T12:49:15.098Z,2.84
2023-12-08T12:50:14.892Z,2.94
2023-12-08T12:51:15.044Z,2.95
2023-12-08T12:52:15.219Z,2.95
2023-12-08T12:53:15.541Z,3.03
2023-12-08T12:54:15.701Z,3.16
2023-12-08T12:55:15.859Z,3.27
2023-12-08T12:56:15.989Z,3.28
2023-12-08T12:57:16.262Z,3.25
2023-12-08T12:58:16.483Z,3.24
2023-12-08T12:59:16.690Z,3.25
2023-12-08T13:00:16.901Z,3.32
2023-12-08T13:01:17.188Z,3.39
2023-12-08T13:02:17.369Z,3.43
2023-12-08T13:03:17.572Z,3.37
2023-12-08T13:04:17.818Z,3.31
2023-12-08T13:05:18.035Z,3.31
2023-12-08T13:06:18.229Z,3.22
2023-12-08T13:07:18.358Z,3.24
2023-12-08T13:08:18.588Z,3.24
2023-12-08T13:09:19.015Z,3.29
2023-12-08T13:10:19.017Z,3.30
2023-12-08T13:11:19.248Z,3.35
2023-12-08T13:12:19.593Z,3.39
2023-12-08T13:13:19.702Z,3.47
2023-12-08T13:14:19.922Z,3.59